Time;durP1;ratioP1;P1;durP2;ratioP2;P2;SDS_P1;SDS_P2;PMS_P1;PMS_P2;Temp;Humidity;BMP_temperature;BMP_pressure;BME280_temperature;BME280_humidity;BME280_pressure;Samples;Min_cycle;Max_cycle;Signal;HPM_P1;HPM_P2
2022/03/13 00:00:59;;;;;;;22.23;16.53;;;6.80;58.20;;;;;;5072621;28;20440;-56
2022/03/13 00:03:28;;;;;;;25.87;18.13;;;6.80;58.10;;;;;;5071242;28;20448;-56
2022/03/13 00:05:55;;;;;;;29.43;17.10;;;6.60;58.10;;;;;;5072808;28;20499;-56
2022/03/13 00:08:26;;;;;;;25.70;18.27;;;6.60;58.40;;;;;;5072839;28;20464;-56
2022/03/13 00:10:57;;;;;;;18.70;15.57;;;6.50;58.40;;;;;;5073003;28;20475;-56
2022/03/13 00:13:28;;;;;;;18.67;16.03;;;6.40;58.50;;;;;;5072922;28;20434;-56
2022/03/13 00:15:56;;;;;;;22.87;16.53;;;6.50;58.40;;;;;;5072447;28;20902;-56
2022/03/13 00:18:23;;;;;;;22.80;17.13;;;6.50;58.40;;;;;;5072866;28;20469;-56
2022/03/13 00:20:51;;;;;;;27.93;17.60;;;6.40;58.40;;;;;;5072913;28;20519;-56
2022/03/13 00:23:19;;;;;;;23.13;17.70;;;6.30;58.60;;;;;;5072789;28;20850;-55
2022/03/13 00:25:46;;;;;;;24.60;17.63;;;6.30;58.80;;;;;;5072749;28;20452;-56
2022/03/13 00:28:15;;;;;;;22.00;16.63;;;6.30;58.80;;;;;;5072817;28;20467;-56
2022/03/13 00:30:42;;;;;;;25.47;18.70;;;6.30;58.60;;;;;;5072386;28;20476;-56
2022/03/13 00:33:10;;;;;;;22.97;16.47;;;6.20;58.60;;;;;;5072390;28;20570;-56
2022/03/13 00:35:39;;;;;;;24.57;16.43;;;6.20;58.80;;;;;;5075646;28;20843;-56
2022/03/13 00:38:06;;;;;;;25.77;17.73;;;6.20;58.80;;;;;;5075923;28;21047;-56
2022/03/13 00:40:35;;;;;;;23.10;16.37;;;6.20;58.60;;;;;;5076251;28;20490;-56
2022/03/13 00:43:02;;;;;;;21.40;17.20;;;6.10;59.20;;;;;;5076007;28;20444;-56
2022/03/13 00:45:31;;;;;;;25.93;17.33;;;6.30;59.00;;;;;;5075823;28;20873;-56
2022/03/13 00:47:59;;;;;;;19.50;17.37;;;6.30;59.00;;;;;;5076026;28;20503;-56
2022/03/13 00:50:26;;;;;;;23.77;18.07;;;6.20;59.10;;;;;;5075752;28;20480;-56
2022/03/13 00:52:56;;;;;;;21.27;16.67;;;6.00;59.10;;;;;;5076097;28;20451;-56
2022/03/13 00:55:23;;;;;;;29.40;18.30;;;6.10;59.60;;;;;;5075654;28;20487;-55
2022/03/13 00:57:50;;;;;;;23.93;15.73;;;6.00;59.40;;;;;;5075862;28;20471;-56
2022/03/13 01:00:18;;;;;;;19.33;16.53;;;6.00;59.60;;;;;;5076024;28;20451;-56
2022/03/13 01:02:46;;;;;;;27.27;18.20;;;6.00;59.60;;;;;;5075794;28;20455;-56
2022/03/13 01:05:23;;;;;;;25.73;18.43;;;6.10;60.30;;;;;;5075662;28;20460;-56
2022/03/13 01:07:50;;;;;;;25.23;18.03;;;6.10;59.40;;;;;;5075772;28;20482;-56
2022/03/13 01:10:17;;;;;;;24.97;17.00;;;6.00;59.90;;;;;;5075148;28;20890;-56
2022/03/13 01:12:45;;;;;;;29.80;17.73;;;5.90;60.40;;;;;;5075175;28;20934;-56
2022/03/13 01:15:12;;;;;;;23.73;17.67;;;5.90;60.10;;;;;;5075549;28;20474;-56
2022/03/13 01:17:39;;;;;;;25.30;18.80;;;5.80;60.70;;;;;;5075514;28;20468;-56
2022/03/13 01:20:17;;;;;;;25.47;19.13;;;5.70;61.00;;;;;;5075536;28;20531;-56
2022/03/13 01:22:45;;;;;;;29.00;18.30;;;5.70;61.50;;;;;;5075220;28;20429;-55
2022/03/13 01:25:12;;;;;;;21.43;16.37;;;5.70;61.80;;;;;;5075463;28;20476;-56
2022/03/13 01:27:39;;;;;;;24.30;18.40;;;5.60;62.30;;;;;;5075242;28;20471;-56
2022/03/13 01:30:08;;;;;;;27.07;18.13;;;5.60;63.10;;;;;;5074923;28;20807;-56
2022/03/13 01:32:35;;;;;;;25.33;18.83;;;5.60;63.00;;;;;;5075111;28;20962;-56
2022/03/13 01:35:03;;;;;;;26.97;18.77;;;5.60;62.90;;;;;;5075113;28;20460;-55
2022/03/13 01:37:34;;;;;;;30.47;19.80;;;5.60;63.10;;;;;;5074858;28;20559;-55
2022/03/13 01:40:06;;;;;;;24.37;18.33;;;5.60;63.70;;;;;;5074819;28;20433;-56
2022/03/13 01:42:33;;;;;;;28.57;19.37;;;5.60;63.80;;;;;;5074914;28;20519;-56
2022/03/13 01:45:00;;;;;;;29.60;20.37;;;5.60;63.50;;;;;;5074834;28;20462;-56
2022/03/13 01:47:27;;;;;;;25.13;18.97;;;5.60;63.50;;;;;;5074956;28;20537;-56
2022/03/13 01:49:55;;;;;;;28.50;20.73;;;;;;;;;;5075045;28;20497;-56
2022/03/13 01:52:26;;;;;;;30.53;19.83;;;5.50;63.40;;;;;;5074466;28;20480;-56
2022/03/13 01:54:55;;;;;;;24.20;17.60;;;5.50;63.70;;;;;;5074406;28;20429;-56
2022/03/13 01:57:23;;;;;;;28.90;20.27;;;5.50;64.70;;;;;;5074881;28;20475;-55
2022/03/13 01:59:52;;;;;;;25.10;18.13;;;5.50;64.30;;;;;;5074544;28;20945;-56
2022/03/13 02:02:20;;;;;;;24.30;18.50;;;5.20;64.70;;;;;;5074357;28;20977;-55
2022/03/13 02:04:52;;;;;;;25.70;19.93;;;5.20;65.90;;;;;;5074183;28;20444;-56
2022/03/13 02:07:19;;;;;;;24.40;18.37;;;5.20;66.60;;;;;;5074659;28;20464;-56
2022/03/13 02:09:48;;;;;;;26.77;18.80;;;5.20;66.70;;;;;;5074480;28;20454;-56
2022/03/13 02:12:20;;;;;;;29.10;18.90;;;5.30;67.50;;;;;;5074320;28;20529;-56
2022/03/13 02:14:48;;;;;;;28.10;20.57;;;5.40;66.60;;;;;;5074224;28;20898;-56
2022/03/13 02:17:25;;;;;;;27.87;18.23;;;5.50;67.30;;;;;;5074417;28;20473;-56
2022/03/13 02:19:54;;;;;;;25.67;17.37;;;5.30;67.20;;;;;;5074350;28;20817;-56
2022/03/13 02:22:21;;;;;;;24.73;19.27;;;5.30;67.00;;;;;;5073899;28;20927;-56
2022/03/13 02:24:51;;;;;;;23.50;17.57;;;5.20;66.90;;;;;;5074018;28;20444;-57
2022/03/13 02:27:22;;;;;;;27.43;18.67;;;5.10;67.40;;;;;;5073879;28;20468;-56
2022/03/13 02:29:49;;;;;;;25.20;18.70;;;5.10;66.80;;;;;;5074170;28;20459;-55
2022/03/13 02:32:18;;;;;;;23.33;17.57;;;5.10;67.90;;;;;;5073763;28;20968;-56
2022/03/13 02:34:47;;;;;;;29.33;20.13;;;5.20;68.20;;;;;;5073792;28;20963;-56
2022/03/13 02:37:29;;;;;;;23.23;18.60;;;5.30;68.20;;;;;;5073714;28;20503;-56
2022/03/13 02:39:58;;;;;;;24.90;17.10;;;5.20;67.80;;;;;;5073935;28;20789;-56
2022/03/13 02:42:25;;;;;;;22.30;15.57;;;5.20;67.30;;;;;;5073854;28;20550;-56
2022/03/13 02:44:52;;;;;;;25.53;18.47;;;5.20;66.90;;;;;;5073797;28;20460;-56
2022/03/13 02:47:19;;;;;;;21.13;17.30;;;5.30;66.90;;;;;;5073307;28;20539;-55
2022/03/13 02:49:46;;;;;;;21.23;17.40;;;5.20;67.50;;;;;;5073671;28;20531;-55
2022/03/13 02:52:14;;;;;;;21.17;17.67;;;5.10;67.50;;;;;;5073449;28;20470;-56
2022/03/13 02:54:41;;;;;;;27.80;16.80;;;5.00;67.90;;;;;;5073324;28;20535;-56
2022/03/13 02:57:09;;;;;;;23.43;16.10;;;5.00;68.20;;;;;;5073208;28;20471;-56
2022/03/13 02:59:36;;;;;;;20.23;16.73;;;5.00;67.80;;;;;;5073476;28;20450;-56
2022/03/13 03:02:04;;;;;;;26.40;18.73;;;4.90;67.70;;;;;;5073217;28;20483;-56
2022/03/13 03:04:31;;;;;;;22.70;15.30;;;4.90;67.60;;;;;;5073297;28;20787;-56
2022/03/13 03:07:03;;;;;;;19.97;14.50;;;4.90;67.10;;;;;;5073824;28;20474;-57
2022/03/13 03:09:31;;;;;;;16.93;14.33;;;4.90;66.70;;;;;;5073361;28;20428;-56
2022/03/13 03:12:00;;;;;;;22.40;16.60;;;5.00;67.20;;;;;;5073191;28;20671;-56
2022/03/13 03:14:30;;;;;;;24.53;17.77;;;5.00;66.60;;;;;;5073430;28;20444;-56
2022/03/13 03:16:57;;;;;;;19.47;15.97;;;5.00;66.70;;;;;;5073451;28;20476;-56
2022/03/13 03:19:25;;;;;;;21.47;15.37;;;5.00;67.00;;;;;;5073428;28;20452;-56
2022/03/13 03:21:53;;;;;;;23.33;18.07;;;4.90;67.40;;;;;;5073043;28;20484;-56
2022/03/13 03:24:22;;;;;;;26.37;17.53;;;4.70;67.70;;;;;;5073166;28;20934;-56
2022/03/13 03:26:49;;;;;;;20.37;15.17;;;4.70;68.60;;;;;;5073305;28;20468;-56
2022/03/13 03:29:17;;;;;;;19.77;13.50;;;4.80;67.10;;;;;;5073310;28;20452;-56
2022/03/13 03:31:47;;;;;;;18.90;14.00;;;4.80;66.10;;;;;;5073427;28;20466;-55
2022/03/13 03:34:16;;;;;;;25.20;15.63;;;4.70;66.80;;;;;;5073454;28;20515;-56
2022/03/13 03:36:46;;;;;;;22.10;16.80;;;4.70;66.90;;;;;;5073401;28;20475;-55
2022/03/13 03:39:13;;;;;;;24.53;16.77;;;4.60;67.20;;;;;;5072956;28;20452;-55
2022/03/13 03:41:43;;;;;;;30.80;18.73;;;4.70;67.40;;;;;;5073255;28;20490;-56
2022/03/13 03:44:11;;;;;;;21.70;15.77;;;4.60;67.50;;;;;;5072862;28;20453;-56
2022/03/13 03:46:39;;;;;;;25.50;15.30;;;4.70;67.40;;;;;;5072940;28;20829;-55
2022/03/13 03:49:07;;;;;;;21.00;16.47;;;4.70;67.50;;;;;;5073255;28;20812;-55
2022/03/13 03:51:35;;;;;;;22.40;15.57;;;4.70;66.40;;;;;;5072827;28;20444;-56
2022/03/13 03:54:02;;;;;;;20.30;15.93;;;4.70;65.80;;;;;;5073034;28;20444;-55
2022/03/13 03:56:29;;;;;;;20.20;14.80;;;4.60;67.80;;;;;;5072708;28;20509;-56
2022/03/13 03:58:56;;;;;;;23.00;16.30;;;4.70;67.10;;;;;;5073038;28;20452;-55
2022/03/13 04:01:23;;;;;;;21.30;14.93;;;4.70;66.70;;;;;;5072550;28;20990;-55
2022/03/13 04:03:51;;;;;;;22.07;16.23;;;4.70;67.20;;;;;;5073115;28;20444;-55
2022/03/13 04:06:20;;;;;;;21.83;16.00;;;4.70;66.70;;;;;;5072877;28;20467;-55
2022/03/13 04:08:47;;;;;;;23.20;16.07;;;4.60;67.20;;;;;;5073079;28;20482;-55
2022/03/13 04:11:15;;;;;;;23.40;16.70;;;4.50;67.60;;;;;;5076477;28;20540;-55
2022/03/13 04:13:42;;;;;;;17.77;15.03;;;4.50;67.80;;;;;;5076594;28;20538;-56
2022/03/13 04:16:10;;;;;;;20.37;15.27;;;4.40;68.60;;;;;;5076164;28;20452;-56
2022/03/13 04:18:38;;;;;;;20.63;17.00;;;4.40;69.10;;;;;;5076343;28;20874;-55
2022/03/13 04:21:06;;;;;;;26.40;18.03;;;4.30;69.30;;;;;;5076400;28;20452;-55
2022/03/13 04:23:36;;;;;;;21.43;15.70;;;4.30;69.80;;;;;;5076563;28;20769;-55
2022/03/13 04:26:04;;;;;;;20.30;16.20;;;4.50;70.70;;;;;;5076515;28;20527;-56
2022/03/13 04:28:32;;;;;;;24.77;14.90;;;4.50;69.80;;;;;;5076516;28;20493;-56
2022/03/13 04:31:00;;;;;;;20.43;15.80;;;4.50;68.90;;;;;;5076384;28;20472;-55
2022/03/13 04:33:29;;;;;;;21.07;15.20;;;4.30;69.80;;;;;;5076339;28;20444;-55
2022/03/13 04:36:00;;;;;;;26.63;17.10;;;4.40;70.00;;;;;;5076378;28;20456;-56
2022/03/13 04:38:28;;;;;;;21.73;15.30;;;4.40;70.00;;;;;;5076057;28;20867;-55
2022/03/13 04:40:58;;;;;;;19.70;16.10;;;4.40;69.60;;;;;;5075941;28;20805;-56
2022/03/13 04:43:26;;;;;;;17.97;13.80;;;4.30;70.30;;;;;;5075819;28;20487;-56
2022/03/13 04:45:53;;;;;;;22.70;16.70;;;4.20;69.90;;;;;;5075871;28;21007;-56
2022/03/13 04:48:21;;;;;;;23.37;16.37;;;4.10;70.50;;;;;;5076108;28;20518;-56
2022/03/13 04:50:48;;;;;;;22.27;15.00;;;4.20;70.80;;;;;;5076062;28;20448;-56
2022/03/13 04:53:16;;;;;;;23.77;16.03;;;4.20;70.80;;;;;;5076123;28;20444;-56
2022/03/13 04:55:43;;;;;;;19.13;13.47;;;4.20;70.90;;;;;;5075606;28;20567;-56
2022/03/13 04:58:12;;;;;;;23.13;16.47;;;4.20;71.00;;;;;;5075872;28;20481;-55
2022/03/13 05:00:39;;;;;;;22.77;15.63;;;4.30;70.80;;;;;;5075717;28;20454;-55
2022/03/13 05:03:07;;;;;;;16.63;14.90;;;4.40;71.00;;;;;;5075723;28;20539;-55
2022/03/13 05:05:36;;;;;;;22.13;16.10;;;4.40;70.70;;;;;;5075577;28;20934;-55
2022/03/13 05:08:05;;;;;;;18.20;14.67;;;4.30;71.40;;;;;;5075823;28;20476;-55
2022/03/13 05:10:35;;;;;;;23.20;14.87;;;4.20;70.60;;;;;;5076155;28;20448;-55
2022/03/13 05:13:03;;;;;;;23.30;14.80;;;4.20;71.20;;;;;;5075435;28;20900;-55
2022/03/13 05:15:31;;;;;;;21.50;16.30;;;4.20;71.90;;;;;;5075698;28;20850;-55
2022/03/13 05:17:59;;;;;;;21.03;14.90;;;4.20;71.10;;;;;;5075608;28;20471;-55
2022/03/13 05:20:26;;;;;;;25.27;16.00;;;4.10;70.10;;;;;;5075248;28;20530;-56
2022/03/13 05:22:53;;;;;;;17.37;15.47;;;4.20;69.80;;;;;;5075067;28;20993;-55
2022/03/13 05:25:23;;;;;;;26.63;18.27;;;4.30;70.70;;;;;;5075566;28;20458;-55
2022/03/13 05:27:50;;;;;;;20.83;15.47;;;4.30;70.90;;;;;;5075003;28;20982;-55
2022/03/13 05:30:19;;;;;;;21.33;15.23;;;4.30;70.90;;;;;;5075298;28;20461;-55
2022/03/13 05:32:47;;;;;;;21.90;15.40;;;4.30;70.90;;;;;;5075119;28;20487;-56
2022/03/13 05:35:14;;;;;;;22.73;16.40;;;4.20;70.90;;;;;;5075126;28;20452;-56
2022/03/13 05:37:41;;;;;;;23.77;16.23;;;4.30;71.40;;;;;;5075112;28;20465;-55
2022/03/13 05:40:13;;;;;;;23.80;16.30;;;4.30;70.90;;;;;;5074920;28;20772;-55
2022/03/13 05:42:41;;;;;;;22.33;16.20;;;4.40;71.10;;;;;;5074864;28;20461;-56
2022/03/13 05:45:11;;;;;;;23.47;17.23;;;4.40;69.80;;;;;;5074979;28;20459;-56
2022/03/13 05:47:44;;;;;;;23.57;16.27;;;4.30;70.50;;;;;;5074758;28;20476;-55
2022/03/13 05:50:14;;;;;;;21.47;16.83;;;4.40;70.50;;;;;;5075077;28;20428;-56
2022/03/13 05:52:43;;;;;;;21.20;16.17;;;4.30;71.00;;;;;;5075040;28;20476;-56
2022/03/13 05:55:11;;;;;;;26.13;17.80;;;4.30;70.50;;;;;;5074592;28;20487;-56
2022/03/13 05:57:38;;;;;;;19.20;14.70;;;4.40;71.60;;;;;;5074714;28;20479;-56
2022/03/13 06:00:07;;;;;;;24.27;16.43;;;4.40;71.40;;;;;;5074539;28;20454;-56
2022/03/13 06:02:38;;;;;;;24.90;16.37;;;4.40;71.10;;;;;;5074631;28;20570;-55
2022/03/13 06:05:07;;;;;;;20.60;15.73;;;4.40;70.70;;;;;;5074656;28;20534;-56
2022/03/13 06:07:36;;;;;;;21.70;15.40;;;4.50;71.10;;;;;;5074353;28;20468;-56
2022/03/13 06:10:04;;;;;;;21.97;15.37;;;4.50;71.70;;;;;;5074580;28;20501;-55
2022/03/13 06:12:31;;;;;;;27.60;18.20;;;4.60;71.20;;;;;;5074153;28;20965;-55
2022/03/13 06:14:59;;;;;;;21.37;16.93;;;4.60;71.10;;;;;;5074618;28;20527;-56
2022/03/13 06:17:27;;;;;;;26.30;16.40;;;4.40;71.40;;;;;;5074422;28;20475;-56
2022/03/13 06:19:56;;;;;;;23.10;16.83;;;4.50;72.50;;;;;;5074373;28;20452;-56
2022/03/13 06:22:24;;;;;;;23.80;16.57;;;4.50;72.30;;;;;;5074179;28;20636;-55
2022/03/13 06:24:53;;;;;;;21.53;16.13;;;4.40;72.00;;;;;;5073980;28;20988;-57
2022/03/13 06:27:22;;;;;;;25.97;17.90;;;4.50;72.00;;;;;;5073849;28;20471;-56
2022/03/13 06:29:49;;;;;;;21.30;16.20;;;4.60;71.10;;;;;;5074115;28;20809;-56
2022/03/13 06:32:18;;;;;;;22.70;16.53;;;4.80;72.50;;;;;;5073546;28;20445;-56
2022/03/13 06:34:45;;;;;;;22.77;16.97;;;4.80;71.00;;;;;;5073720;28;20441;-56
2022/03/13 06:37:13;;;;;;;22.27;16.70;;;4.90;72.10;;;;;;5073713;28;20966;-55
2022/03/13 06:39:40;;;;;;;20.97;17.57;;;5.00;70.50;;;;;;5074133;28;20448;-56
2022/03/13 06:42:09;;;;;;;25.57;17.40;;;5.00;69.80;;;;;;5073843;28;20480;-56
2022/03/13 06:44:36;;;;;;;24.07;18.57;;;5.00;69.20;;;;;;5073876;28;20810;-56
2022/03/13 06:47:04;;;;;;;26.27;17.60;;;5.00;68.80;;;;;;5073418;28;20468;-56
2022/03/13 06:49:31;;;;;;;23.10;17.90;;;5.00;69.20;;;;;;5073825;28;20444;-56
2022/03/13 06:51:58;;;;;;;22.57;15.57;;;5.10;69.80;;;;;;5073401;28;20962;-56
2022/03/13 06:54:25;;;;;;;22.27;18.17;;;5.10;69.60;;;;;;5073470;28;20452;-56
2022/03/13 06:56:53;;;;;;;27.20;17.67;;;5.30;70.70;;;;;;5073238;28;20480;-56
2022/03/13 06:59:21;;;;;;;20.13;16.50;;;5.30;71.20;;;;;;5073375;28;20986;-56
2022/03/13 07:01:49;;;;;;;26.40;18.53;;;5.30;69.70;;;;;;5073616;28;20456;-56
2022/03/13 07:04:16;;;;;;;25.40;18.63;;;5.30;69.40;;;;;;5073439;28;20444;-56
2022/03/13 07:06:43;;;;;;;23.77;17.20;;;;;;;;;;5073139;28;20476;-56
2022/03/13 07:09:10;;;;;;;23.60;17.67;;;5.60;69.20;;;;;;5073533;28;20444;-56
2022/03/13 07:11:38;;;;;;;28.07;18.03;;;5.70;70.30;;;;;;5073367;28;20961;-56
2022/03/13 07:14:09;;;;;;;26.67;22.00;;;5.70;69.80;;;;;;5073398;28;20518;-56
2022/03/13 07:16:38;;;;;;;21.10;18.57;;;5.70;69.60;;;;;;5073352;28;20522;-56
2022/03/13 07:19:05;;;;;;;26.27;18.50;;;5.70;69.50;;;;;;5073575;28;20452;-56
2022/03/13 07:21:32;;;;;;;24.33;19.03;;;5.70;69.50;;;;;;5073353;28;20445;-56
2022/03/13 07:24:00;;;;;;;38.20;19.77;;;5.50;69.70;;;;;;5072996;28;20491;-55
2022/03/13 07:26:27;;;;;;;29.67;20.77;;;5.60;68.80;;;;;;5073321;28;20544;-56
2022/03/13 07:28:54;;;;;;;32.60;19.97;;;5.60;68.70;;;;;;5073307;28;20448;-56
2022/03/13 07:31:21;;;;;;;25.27;19.10;;;5.60;68.50;;;;;;5073200;28;20805;-55
2022/03/13 07:33:49;;;;;;;27.07;20.03;;;5.70;68.80;;;;;;5073300;28;20447;-55
2022/03/13 07:36:17;;;;;;;28.37;18.67;;;5.70;69.00;;;;;;5073121;28;20462;-56
2022/03/13 07:38:44;;;;;;;29.07;18.90;;;5.80;69.10;;;;;;5073220;28;20448;-56
2022/03/13 07:41:12;;;;;;;30.10;18.60;;;5.80;68.40;;;;;;5072936;28;20432;-55
2022/03/13 07:43:39;;;;;;;26.57;18.47;;;5.90;68.20;;;;;;5074681;28;20483;-56
2022/03/13 07:46:06;;;;;;;24.93;20.20;;;5.90;68.00;;;;;;5076835;28;20927;-56
2022/03/13 07:48:35;;;;;;;28.93;18.63;;;6.00;68.20;;;;;;5077130;28;20496;-56
2022/03/13 07:51:04;;;;;;;22.80;17.27;;;6.10;68.40;;;;;;5076946;28;20543;-57
2022/03/13 07:53:31;;;;;;;25.37;18.47;;;6.30;67.60;;;;;;5077000;28;20803;-56
2022/03/13 07:55:58;;;;;;;27.13;19.17;;;6.40;67.70;;;;;;5076639;28;20567;-56
2022/03/13 07:58:26;;;;;;;26.27;18.77;;;6.60;67.90;;;;;;5077129;28;20470;-56
2022/03/13 08:00:53;;;;;;;21.63;16.70;;;6.70;66.80;;;;;;5076753;28;20460;-56
2022/03/13 08:03:35;;;;;;;23.60;17.13;;;6.80;65.10;;;;;;5076968;28;20484;-56
2022/03/13 08:06:04;;;;;;;26.03;18.53;;;6.90;65.20;;;;;;5076690;28;20451;-56
2022/03/13 08:08:31;;;;;;;23.93;18.50;;;7.00;63.50;;;;;;5076667;28;20464;-56
2022/03/13 08:10:59;;;;;;;21.37;18.30;;;6.90;62.90;;;;;;5076854;28;20476;-56
2022/03/13 08:13:26;;;;;;;22.57;17.00;;;7.00;62.50;;;;;;5076446;28;20990;-56
2022/03/13 08:15:53;;;;;;;30.53;18.27;;;7.10;62.00;;;;;;5076473;28;20479;-56
2022/03/13 08:18:20;;;;;;;21.13;17.30;;;7.20;61.60;;;;;;5076000;28;20966;-56
2022/03/13 08:20:48;;;;;;;21.03;17.17;;;7.30;62.90;;;;;;5076376;28;20523;-57
2022/03/13 08:23:17;;;;;;;23.17;16.10;;;7.20;59.70;;;;;;5076409;28;20480;-56
2022/03/13 08:25:44;;;;;;;23.23;16.47;;;7.40;63.10;;;;;;5076537;28;20459;-56
2022/03/13 08:28:11;;;;;;;26.93;18.40;;;7.40;60.40;;;;;;5076435;28;20464;-56
2022/03/13 08:30:38;;;;;;;23.60;16.93;;;7.50;59.60;;;;;;5076571;28;20518;-56
2022/03/13 08:33:05;;;;;;;28.43;17.97;;;7.50;59.90;;;;;;5076226;28;20476;-56
2022/03/13 08:35:33;;;;;;;30.20;18.27;;;7.70;61.70;;;;;;5076121;28;20460;-56
2022/03/13 08:38:00;;;;;;;23.90;17.73;;;7.80;63.10;;;;;;5076272;28;20472;-56
2022/03/13 08:40:29;;;;;;;25.93;18.33;;;7.90;62.20;;;;;;5076335;28;20444;-56
2022/03/13 08:42:56;;;;;;;26.70;17.83;;;8.00;60.00;;;;;;5075807;28;20625;-56
2022/03/13 08:45:24;;;;;;;26.60;18.70;;;8.00;59.80;;;;;;5076142;28;20551;-57
2022/03/13 08:47:51;;;;;;;23.50;18.07;;;8.20;59.90;;;;;;5076071;28;20479;-56
2022/03/13 08:50:20;;;;;;;21.00;17.10;;;8.30;59.20;;;;;;5076062;28;20539;-56
2022/03/13 08:52:47;;;;;;;25.10;16.33;;;8.50;58.90;;;;;;5075247;28;20810;-56
2022/03/13 08:55:17;;;;;;;24.33;17.77;;;8.60;59.60;;;;;;5075031;28;20845;-56
2022/03/13 08:57:47;;;;;;;18.33;14.77;;;8.70;58.60;;;;;;5075883;28;20496;-56
2022/03/13 09:00:18;;;;;;;22.40;17.23;;;8.70;58.20;;;;;;5075085;28;20448;-56
2022/03/13 09:02:46;;;;;;;24.50;18.00;;;8.90;59.00;;;;;;5075794;28;20433;-56
2022/03/13 09:05:13;;;;;;;23.37;17.60;;;8.90;58.10;;;;;;5075736;28;20463;-56
2022/03/13 09:07:41;;;;;;;22.70;18.10;;;9.00;58.50;;;;;;5075319;28;21012;-56
2022/03/13 09:10:11;;;;;;;23.20;16.57;;;9.00;58.50;;;;;;5075526;28;20943;-56
2022/03/13 09:12:39;;;;;;;18.73;16.73;;;8.90;57.90;;;;;;5075976;28;20460;-56
2022/03/13 09:15:09;;;;;;;24.77;18.23;;;9.00;58.00;;;;;;5075797;28;20451;-57
2022/03/13 09:17:37;;;;;;;23.00;18.20;;;9.00;58.00;;;;;;5075309;28;20471;-57
2022/03/13 09:20:05;;;;;;;21.73;16.67;;;9.00;58.20;;;;;;5075732;28;20451;-57
2022/03/13 09:22:32;;;;;;;25.40;19.60;;;9.20;57.70;;;;;;5075158;28;20459;-56
2022/03/13 09:25:00;;;;;;;21.87;17.67;;;9.20;57.50;;;;;;5075401;28;20433;-57
2022/03/13 09:27:29;;;;;;;24.97;18.40;;;9.30;57.90;;;;;;5075422;28;20506;-56
2022/03/13 09:29:57;;;;;;;21.00;16.50;;;9.40;57.50;;;;;;5075148;28;20949;-56
2022/03/13 09:32:27;;;;;;;25.57;17.37;;;9.60;57.80;;;;;;5075250;28;20873;-57
2022/03/13 09:34:54;;;;;;;22.83;18.03;;;9.60;57.20;;;;;;5074853;28;20441;-56
2022/03/13 09:37:23;;;;;;;21.30;16.57;;;9.80;57.20;;;;;;5075238;28;20463;-57
2022/03/13 09:39:51;;;;;;;22.87;16.60;;;10.00;55.80;;;;;;5075082;28;20855;-56
2022/03/13 09:42:19;;;;;;;21.53;17.60;;;10.20;56.50;;;;;;5074947;28;20755;-56
2022/03/13 09:44:46;;;;;;;25.67;18.33;;;10.20;56.40;;;;;;5074866;28;20484;-57
2022/03/13 09:47:13;;;;;;;24.77;17.17;;;10.40;55.60;;;;;;5074760;28;20527;-57
2022/03/13 09:49:43;;;;;;;19.73;15.73;;;10.50;54.70;;;;;;5074750;28;20448;-57
2022/03/13 09:52:10;;;;;;;24.73;17.97;;;10.90;54.40;;;;;;5074981;28;20551;-57
2022/03/13 09:54:38;;;;;;;23.70;18.13;;;11.80;54.30;;;;;;5074718;28;20442;-57
2022/03/13 09:57:06;;;;;;;23.10;17.77;;;12.90;53.90;;;;;;5074207;28;20562;-57
2022/03/13 09:59:33;;;;;;;22.20;17.13;;;14.30;52.60;;;;;;5074622;28;20452;-61
2022/03/13 10:02:00;;;;;;;21.63;17.97;;;15.10;51.80;;;;;;5074876;28;20449;-60
2022/03/13 10:04:27;;;;;;;25.30;20.27;;;16.10;50.50;;;;;;5074621;28;20512;-61
2022/03/13 10:07:06;;;;;;;22.83;18.17;;;16.40;48.40;;;;;;5073250;28;20487;-63
2022/03/13 10:09:34;;;;;;;27.70;19.53;;;16.50;48.30;;;;;;5074777;28;20472;-61
2022/03/13 10:12:08;;;;;;;22.53;18.27;;;17.30;48.90;;;;;;5074211;28;20915;-61
2022/03/13 10:14:38;;;;;;;22.70;18.87;;;17.00;47.70;;;;;;5074211;28;20441;-57
2022/03/13 10:17:25;;;;;;;21.60;18.47;;;16.90;47.70;;;;;;5073995;28;20551;-56
2022/03/13 10:19:52;;;;;;;20.77;17.10;;;17.60;47.60;;;;;;5074307;28;20429;-57
2022/03/13 10:22:30;;;;;;;22.03;19.67;;;18.30;47.30;;;;;;5074293;28;20445;-56
2022/03/13 10:24:57;;;;;;;21.63;19.17;;;18.70;46.80;;;;;;5073973;28;20475;-56
2022/03/13 10:27:24;;;;;;;23.00;18.77;;;18.10;46.80;;;;;;5073836;28;21513;-57
2022/03/13 10:29:52;;;;;;;24.40;18.87;;;18.50;47.10;;;;;;5073875;28;20930;-56
2022/03/13 10:32:20;;;;;;;20.83;17.70;;;19.00;46.40;;;;;;5073880;28;20448;-57
2022/03/13 10:34:55;;;;;;;24.50;18.47;;;18.90;45.40;;;;;;5073970;28;20445;-57
2022/03/13 10:37:38;;;;;;;23.80;19.10;;;18.30;45.70;;;;;;5073633;28;20954;-57
2022/03/13 10:40:14;;;;;;;23.07;18.47;;;18.70;45.80;;;;;;5073978;28;20432;-57
2022/03/13 10:42:43;;;;;;;24.93;19.40;;;18.90;44.80;;;;;;5073778;28;20523;-57
2022/03/13 10:45:11;;;;;;;23.43;19.50;;;;;;;;;;5074185;28;20514;-57
2022/03/13 10:47:38;;;;;;;24.83;20.30;;;20.00;45.50;;;;;;5073377;28;20883;-57
2022/03/13 10:50:07;;;;;;;26.90;20.00;;;20.60;44.40;;;;;;5073469;28;20452;-57
2022/03/13 10:52:36;;;;;;;29.23;20.30;;;20.70;45.50;;;;;;5073385;28;20817;-57
2022/03/13 10:55:19;;;;;;;27.03;20.57;;;20.40;44.00;;;;;;5073417;28;21946;-57
2022/03/13 10:57:51;;;;;;;24.57;20.43;;;20.80;44.30;;;;;;5073562;28;20826;-57
2022/03/13 11:00:19;;;;;;;24.07;19.87;;;20.70;45.20;;;;;;5073305;28;20450;-57
2022/03/13 11:02:46;;;;;;;25.20;19.60;;;21.00;43.30;;;;;;5073677;28;20452;-57
2022/03/13 11:05:13;;;;;;;25.80;20.23;;;20.60;43.30;;;;;;5073314;28;20554;-56
2022/03/13 11:07:42;;;;;;;27.50;21.73;;;20.00;43.80;;;;;;5073429;28;20468;-57
2022/03/13 11:10:11;;;;;;;25.33;20.60;;;20.20;42.40;;;;;;5073643;28;20509;-57
2022/03/13 11:12:39;;;;;;;27.37;20.73;;;20.50;43.60;;;;;;5073294;28;21037;-57
2022/03/13 11:15:09;;;;;;;25.40;21.03;;;20.40;43.40;;;;;;5073131;28;20444;-57
2022/03/13 11:17:38;;;;;;;26.90;20.40;;;20.20;42.90;;;;;;5072723;28;20468;-56
2022/03/13 11:20:09;;;;;;;24.13;20.00;;;20.10;43.10;;;;;;5073524;28;20448;-57
2022/03/13 11:22:37;;;;;;;25.33;20.97;;;20.10;43.30;;;;;;5073407;28;20433;-57
2022/03/13 11:25:07;;;;;;;27.40;21.80;;;21.10;44.00;;;;;;5073218;28;20578;-57
2022/03/13 11:27:36;;;;;;;25.53;21.43;;;20.90;43.20;;;;;;5073089;28;20496;-57
2022/03/13 11:30:09;;;;;;;24.73;20.73;;;21.30;46.80;;;;;;5073075;28;20427;-57
2022/03/13 11:32:40;;;;;;;24.97;20.03;;;21.40;43.80;;;;;;5073054;28;20460;-58
2022/03/13 11:35:27;;;;;;;25.87;20.97;;;21.40;44.40;;;;;;5073036;28;20453;-58
2022/03/13 11:37:56;;;;;;;29.67;22.30;;;21.80;42.70;;;;;;5073032;28;20520;-58
2022/03/13 11:40:37;;;;;;;27.70;20.67;;;20.80;42.30;;;;;;5072894;28;20451;-58
2022/03/13 11:43:10;;;;;;;29.93;22.13;;;21.50;43.40;;;;;;5072922;28;20425;-58
2022/03/13 11:45:39;;;;;;;25.50;21.80;;;21.60;42.80;;;;;;5073184;28;20464;-58
2022/03/13 11:48:36;;;;;;;27.57;21.30;;;20.90;43.40;;;;;;5073011;28;20473;-58
2022/03/13 11:51:05;;;;;;;25.63;21.63;;;21.00;41.50;;;;;;5073129;28;20486;-58
2022/03/13 11:53:44;;;;;;;27.13;21.80;;;20.80;42.60;;;;;;5072882;28;20448;-58
2022/03/13 11:56:26;;;;;;;29.00;20.90;;;20.10;43.20;;;;;;5071743;28;20523;-57
2022/03/13 11:58:57;;;;;;;28.10;21.70;;;20.20;42.80;;;;;;5072687;28;20512;-57
2022/03/13 12:01:38;;;;;;;28.73;22.00;;;21.20;43.60;;;;;;5072815;28;20843;-57
2022/03/13 12:04:28;;;;;;;25.47;21.47;;;21.40;42.20;;;;;;5072967;28;20484;-58
2022/03/13 12:07:00;;;;;;;32.10;21.50;;;20.70;41.60;;;;;;5072604;28;20846;-58
2022/03/13 12:09:44;;;;;;;25.47;20.90;;;20.50;41.60;;;;;;5072965;28;20455;-58
2022/03/13 12:12:15;;;;;;;27.60;21.83;;;21.30;42.10;;;;;;5072991;28;20444;-58
2022/03/13 12:14:54;;;;;;;23.60;18.97;;;20.80;42.50;;;;;;5072839;28;20451;-57
2022/03/13 12:17:25;;;;;;;26.27;19.17;;;21.00;42.60;;;;;;5072214;28;20739;-58
2022/03/13 12:19:53;;;;;;;27.63;21.53;;;20.90;42.20;;;;;;5072320;28;20429;-57
2022/03/13 12:22:21;;;;;;;22.70;19.50;;;21.30;43.10;;;;;;5072361;28;20543;-57
2022/03/13 12:24:52;;;;;;;21.73;19.43;;;21.30;42.00;;;;;;5072324;28;20628;-57
2022/03/13 12:27:22;;;;;;;26.93;19.17;;;21.40;41.90;;;;;;5072570;28;20968;-57
2022/03/13 12:29:55;;;;;;;24.30;19.53;;;21.50;41.40;;;;;;5072812;28;20466;-58
2022/03/13 12:32:27;;;;;;;29.30;21.70;;;21.50;42.50;;;;;;5076186;28;20432;-57
2022/03/13 12:34:55;;;;;;;29.13;21.13;;;21.30;41.40;;;;;;5075955;28;20425;-57
2022/03/13 12:37:22;;;;;;;25.10;19.20;;;21.00;41.30;;;;;;5075824;28;20474;-57
2022/03/13 12:39:51;;;;;;;22.60;18.37;;;21.40;41.10;;;;;;5076285;28;20476;-57
2022/03/13 12:42:24;;;;;;;25.70;19.03;;;21.80;41.50;;;;;;5076203;28;20804;-58
2022/03/13 12:45:04;;;;;;;26.70;21.43;;;21.40;40.10;;;;;;5076089;28;20537;-57